Time;durP1;ratioP1;P1;durP2;ratioP2;P2;SDS_P1;SDS_P2;PMS_P1;PMS_P2;Temp;Humidity;BMP_temperature;BMP_pressure;BME280_temperature;BME280_humidity;BME280_pressure;Samples;Min_cycle;Max_cycle;Signal;HPM_P1;HPM_P2
2024/03/21 00:01:42;;;;;;;;;;;12.30;99.90;;;;;;8374079;28;20000;-76
2024/03/21 00:05:43;;;;;;;;;;;12.30;99.90;;;;;;8378728;28;19924;-76
2024/03/21 00:09:44;;;;;;;;;;;12.30;99.90;;;;;;8375630;28;19930;-76
2024/03/21 00:13:44;;;;;;;;;;;12.20;99.90;;;;;;8373547;28;20737;-76
2024/03/21 00:17:46;;;;;;;;;;;12.20;99.90;;;;;;8362092;28;19936;-76
2024/03/21 00:21:47;;;;;;;;;;;12.20;99.90;;;;;;8389547;28;19921;-76
2024/03/21 00:25:48;;;;;;;;;;;12.20;99.90;;;;;;8364603;28;19924;-76
2024/03/21 00:29:49;;;;;;;;;;;12.20;99.90;;;;;;8383578;28;20658;-76
2024/03/21 00:33:50;;;;;;;;;;;12.20;99.90;;;;;;8380844;28;20298;-76
2024/03/21 00:37:51;;;;;;;;;;;12.20;99.90;;;;;;8388187;28;20291;-76
2024/03/21 00:41:52;;;;;;;;;;;12.20;99.90;;;;;;8380984;28;19954;-76
2024/03/21 00:45:53;;;;;;;;;;;12.20;99.90;;;;;;8376997;28;19928;-76
2024/03/21 00:49:54;;;;;;;;;;;12.30;99.90;;;;;;8385162;28;19932;-75
2024/03/21 00:53:56;;;;;;;;;;;12.30;99.90;;;;;;8383936;28;20354;-76
2024/03/21 00:57:57;;;;;;;;;;;12.20;99.90;;;;;;8389676;28;19928;-76
2024/03/21 01:01:58;;;;;;;;;;;12.20;99.90;;;;;;8383900;28;20065;-76
2024/03/21 01:05:59;;;;;;;;;;;12.10;99.90;;;;;;8379370;28;19935;-76
2024/03/21 01:10:00;;;;;;;;;;;12.10;99.90;;;;;;8381347;28;19928;-76
2024/03/21 01:14:00;;;;;;;;;;;12.10;99.90;;;;;;8357420;28;19977;-76
2024/03/21 01:18:06;;;;;;;;;;;12.10;99.90;;;;;;8375231;28;19931;-76
2024/03/21 01:22:07;;;;;;;;;;;12.00;99.90;;;;;;8384735;28;20417;-75
2024/03/21 01:26:08;;;;;;;;;;;11.90;99.90;;;;;;8387140;28;20684;-76
2024/03/21 01:30:09;;;;;;;;;;;11.90;99.90;;;;;;8382311;28;19920;-75
2024/03/21 01:34:10;;;;;;;13.90;8.43;;;11.90;99.90;;;;;;8377962;28;19971;-76
2024/03/21 01:38:12;;;;;;;12.65;8.18;;;11.80;99.90;;;;;;8379304;28;20218;-76
2024/03/21 01:42:17;;;;;;;11.77;7.47;;;11.80;99.90;;;;;;8379498;28;20044;-76
2024/03/21 01:46:20;;;;;;;11.18;7.40;;;11.80;99.90;;;;;;8383447;28;20054;-76
2024/03/21 01:50:20;;;;;;;10.77;7.57;;;11.70;99.90;;;;;;8367005;28;20048;-76
2024/03/21 01:54:22;;;;;;;10.82;6.28;;;11.70;99.90;;;;;;8378932;28;20070;-75
2024/03/21 01:58:24;;;;;;;11.32;7.15;;;11.70;99.90;;;;;;8373985;28;20525;-74
2024/03/21 02:02:26;;;;;;;11.05;7.03;;;11.70;99.90;;;;;;8375819;28;20056;-75
2024/03/21 02:06:28;;;;;;;12.85;7.35;;;11.70;99.90;;;;;;8366922;28;20376;-75
2024/03/21 02:10:29;;;;;;;13.18;7.25;;;11.70;99.90;;;;;;8377326;28;20058;-75
2024/03/21 02:14:33;;;;;;;15.73;8.27;;;11.70;99.90;;;;;;8377763;28;20048;-75
2024/03/21 02:18:34;;;;;;;11.73;7.68;;;11.70;99.90;;;;;;8373481;28;20063;-75
2024/03/21 02:22:35;;;;;;;13.25;8.48;;;11.70;99.90;;;;;;8372322;28;20059;-75
2024/03/21 02:26:36;;;;;;;14.60;9.55;;;11.70;99.90;;;;;;8373344;28;20105;-75
2024/03/21 02:30:37;;;;;;;16.67;9.07;;;11.70;99.90;;;;;;8382399;28;20163;-75
2024/03/21 02:34:38;;;;;;;15.77;10.23;;;11.70;99.90;;;;;;8379587;28;20059;-75
2024/03/21 02:38:39;;;;;;;16.27;10.43;;;11.70;99.90;;;;;;8368654;28;20056;-75
2024/03/21 02:42:40;;;;;;;19.55;10.85;;;11.60;99.90;;;;;;8399876;28;20056;-75
2024/03/21 02:46:41;;;;;;;16.92;10.50;;;11.50;99.90;;;;;;8383894;28;20048;-75
2024/03/21 02:50:42;;;;;;;17.23;11.13;;;11.50;99.90;;;;;;8378821;28;20522;-75
2024/03/21 02:54:43;;;;;;;15.13;9.85;;;11.40;99.90;;;;;;8380501;28;20099;-75
2024/03/21 02:58:44;;;;;;;15.75;10.43;;;11.40;99.90;;;;;;8371677;28;20508;-75
2024/03/21 03:02:45;;;;;;;16.60;10.65;;;11.30;99.90;;;;;;8376474;28;20407;-75
2024/03/21 03:06:46;;;;;;;19.02;10.07;;;11.20;99.90;;;;;;8377271;28;20036;-75
2024/03/21 03:10:47;;;;;;;19.00;11.57;;;11.20;99.90;;;;;;8372768;28;20039;-75
2024/03/21 03:14:48;;;;;;;19.80;11.82;;;11.20;99.90;;;;;;8359033;28;20068;-75
2024/03/21 03:18:49;;;;;;;19.35;11.95;;;11.10;99.90;;;;;;8374956;28;20052;-75
2024/03/21 03:22:50;;;;;;;16.70;11.27;;;11.10;99.90;;;;;;8363019;28;20523;-75
2024/03/21 03:26:50;;;;;;;18.75;11.40;;;11.10;99.90;;;;;;8368866;28;20044;-74
2024/03/21 03:30:51;;;;;;;20.70;11.90;;;11.20;99.90;;;;;;8358645;28;20052;-75
2024/03/21 03:39:12;;;;;;;16.98;10.90;;;11.20;99.90;;;;;;8375365;28;20487;-75
2024/03/21 03:43:13;;;;;;;20.25;10.63;;;11.20;99.90;;;;;;8357806;28;20109;-75
2024/03/21 03:47:14;;;;;;;18.67;11.75;;;11.20;99.90;;;;;;8378106;28;20048;-75
2024/03/21 03:51:15;;;;;;;17.92;10.10;;;11.20;99.90;;;;;;8370122;28;20465;-75
2024/03/21 03:55:15;;;;;;;15.93;9.52;;;11.10;99.90;;;;;;8380415;28;20117;-74
2024/03/21 03:59:17;;;;;;;16.63;9.48;;;11.10;99.90;;;;;;8377853;28;20676;-76
2024/03/21 04:03:17;;;;;;;14.23;9.43;;;11.10;99.90;;;;;;8381395;28;20150;-75
2024/03/21 04:07:20;;;;;;;12.65;7.93;;;11.00;99.90;;;;;;8377435;28;20052;-75
2024/03/21 04:11:21;;;;;;;11.32;7.50;;;11.00;99.90;;;;;;8373773;28;20853;-75
2024/03/21 04:15:22;;;;;;;10.95;6.80;;;11.00;99.90;;;;;;8375559;28;20056;-75
2024/03/21 04:19:23;;;;;;;10.90;6.30;;;11.00;99.90;;;;;;8379887;28;20059;-74
2024/03/21 04:23:24;;;;;;;10.88;6.90;;;10.90;99.90;;;;;;8380813;28;20060;-75
2024/03/21 04:27:25;;;;;;;9.27;5.57;;;10.90;99.90;;;;;;8378721;28;20044;-74
2024/03/21 04:31:26;;;;;;;9.75;5.85;;;10.80;99.90;;;;;;8382057;28;20051;-74
2024/03/21 04:35:27;;;;;;;8.50;5.82;;;10.80;99.90;;;;;;8384777;28;20421;-74
2024/03/21 04:39:28;;;;;;;7.82;4.30;;;10.80;99.90;;;;;;8384380;28;20080;-75
2024/03/21 04:43:29;;;;;;;6.78;3.83;;;10.70;99.90;;;;;;8380383;28;20048;-75
2024/03/21 04:47:30;;;;;;;6.00;3.92;;;10.60;99.90;;;;;;8378361;28;20056;-75
2024/03/21 04:51:30;;;;;;;7.35;3.40;;;10.50;99.90;;;;;;8398874;28;20048;-75
2024/03/21 04:55:31;;;;;;;5.85;3.47;;;10.30;99.90;;;;;;8382691;28;20059;-75
2024/03/21 04:59:33;;;;;;;6.63;3.67;;;10.20;99.90;;;;;;8387340;28;20437;-75
2024/03/21 05:03:36;;;;;;;8.00;3.75;;;10.10;99.90;;;;;;8400526;28;20040;-75
2024/03/21 05:07:37;;;;;;;7.22;4.30;;;10.00;99.90;;;;;;8403740;28;20514;-74
2024/03/21 05:11:38;;;;;;;7.80;4.57;;;10.00;99.90;;;;;;8406960;28;20427;-75
2024/03/21 05:15:48;;;;;;;7.40;4.72;;;9.90;99.90;;;;;;8388354;28;20048;-75
2024/03/21 05:19:49;;;;;;;7.22;4.20;;;9.80;99.90;;;;;;8407777;28;20134;-76
2024/03/21 05:23:50;;;;;;;6.88;4.07;;;9.80;99.90;;;;;;8407441;28;20519;-75
2024/03/21 05:27:51;;;;;;;8.00;4.38;;;9.70;99.90;;;;;;8391110;28;21080;-75
2024/03/21 05:31:52;;;;;;;8.30;4.75;;;9.70;99.90;;;;;;8407925;28;20112;-75
2024/03/21 05:35:52;;;;;;;9.80;4.75;;;9.70;99.90;;;;;;8411860;28;20475;-75
2024/03/21 05:39:54;;;;;;;8.48;4.47;;;9.60;99.90;;;;;;8411279;28;20052;-74
2024/03/21 05:43:54;;;;;;;5.93;3.45;;;9.60;99.90;;;;;;8405461;28;20052;-75
2024/03/21 05:47:55;;;;;;;7.88;4.03;;;9.70;99.90;;;;;;8389791;28;20056;-74
2024/03/21 05:51:56;;;;;;;5.93;2.92;;;9.70;99.90;;;;;;8404269;28;20130;-74
2024/03/21 05:56:05;;;;;;;4.63;2.83;;;9.70;99.90;;;;;;8404466;28;20116;-74
2024/03/21 06:00:09;;;;;;;6.05;2.47;;;9.70;99.90;;;;;;8403431;28;20547;-74
2024/03/21 06:04:10;;;;;;;9.85;2.55;;;9.70;99.90;;;;;;8401530;28;20396;-74
2024/03/21 06:08:11;;;;;;;4.25;2.13;;;9.60;99.90;;;;;;8389955;28;20130;-74
2024/03/21 06:12:13;;;;;;;4.70;1.90;;;9.60;99.90;;;;;;8390350;28;20048;-74
2024/03/21 06:16:14;;;;;;;6.05;2.20;;;9.60;99.90;;;;;;8403161;28;20048;-74
2024/03/21 06:20:15;;;;;;;6.35;1.83;;;9.60;99.90;;;;;;8408208;28;20135;-74
2024/03/21 06:24:16;;;;;;;6.50;1.83;;;9.60;99.90;;;;;;8405727;28;20048;-75
2024/03/21 06:28:17;;;;;;;3.75;1.42;;;9.60;99.90;;;;;;8404039;28;20052;-75
2024/03/21 06:32:18;;;;;;;7.15;1.63;;;9.60;99.90;;;;;;8391049;28;20123;-74
2024/03/21 06:36:19;;;;;;;5.40;1.42;;;9.60;99.90;;;;;;8393394;28;20052;-74
2024/03/21 06:40:20;;;;;;;4.13;1.80;;;9.60;99.90;;;;;;8404238;28;20515;-74
2024/03/21 06:44:21;;;;;;;3.45;1.10;;;9.60;99.90;;;;;;8414236;28;20127;-75
2024/03/21 06:48:23;;;;;;;3.47;1.50;;;9.60;99.90;;;;;;8392344;28;20130;-74
2024/03/21 06:52:24;;;;;;;4.15;1.38;;;9.70;99.90;;;;;;8394207;28;20514;-74
2024/03/21 06:56:26;;;;;;;3.63;1.23;;;9.70;99.90;;;;;;8409581;28;20158;-74
2024/03/21 07:00:28;;;;;;;3.50;1.20;;;9.70;99.90;;;;;;8413905;28;20139;-74
2024/03/21 07:04:29;;;;;;;6.50;1.50;;;9.80;99.90;;;;;;8408867;28;20139;-74
2024/03/21 07:08:30;;;;;;;3.03;1.20;;;9.80;99.90;;;;;;8388498;28;20066;-75
2024/03/21 07:12:31;;;;;;;4.05;1.15;;;9.80;99.90;;;;;;8360768;28;20056;-75
2024/03/21 07:16:32;;;;;;;2.75;1.33;;;9.80;99.90;;;;;;8396123;28;20142;-75
2024/03/21 07:20:32;;;;;;;2.97;1.35;;;9.90;99.90;;;;;;8380158;28;20091;-74
2024/03/21 07:24:33;;;;;;;6.45;1.55;;;9.90;99.90;;;;;;8406879;28;20040;-75
2024/03/21 07:28:34;;;;;;;3.05;1.10;;;10.00;99.90;;;;;;8407464;28;20147;-75
2024/03/21 07:32:35;;;;;;;3.80;1.33;;;10.00;99.90;;;;;;8402348;28;20040;-75
2024/03/21 07:36:36;;;;;;;2.30;1.05;;;10.00;99.90;;;;;;8374696;28;20139;-75
2024/03/21 07:40:37;;;;;;;3.05;1.20;;;10.00;99.90;;;;;;8378306;28;20131;-74
2024/03/21 07:44:38;;;;;;;3.30;1.20;;;10.00;99.90;;;;;;8363516;28;20106;-75
2024/03/21 07:48:39;;;;;;;4.57;1.42;;;10.10;99.90;;;;;;8399939;28;20566;-74
2024/03/21 07:52:40;;;;;;;2.67;1.10;;;10.10;99.90;;;;;;8388545;28;20415;-75
2024/03/21 07:56:41;;;;;;;3.60;1.10;;;10.20;99.90;;;;;;8380496;28;20565;-74
2024/03/21 08:00:42;;;;;;;3.90;1.05;;;10.30;99.90;;;;;;8406858;28;20127;-74
2024/03/21 08:04:43;;;;;;;3.58;0.95;;;10.30;99.90;;;;;;8380236;28;20567;-75
2024/03/21 08:08:44;;;;;;;3.55;1.20;;;10.30;99.90;;;;;;8372312;28;20614;-74
2024/03/21 08:12:45;;;;;;;3.55;1.10;;;10.30;99.90;;;;;;8373465;28;20135;-74
2024/03/21 08:16:46;;;;;;;4.95;1.00;;;10.30;99.90;;;;;;8380854;28;20560;-74
2024/03/21 08:20:47;;;;;;;2.97;1.02;;;10.30;99.90;;;;;;8357181;28;20492;-74
2024/03/21 08:24:48;;;;;;;7.78;1.20;;;10.40;99.90;;;;;;8385707;28;20388;-74
2024/03/21 08:28:49;;;;;;;6.20;1.27;;;10.40;99.90;;;;;;8411541;28;20123;-74
2024/03/21 08:32:50;;;;;;;5.18;1.45;;;10.40;99.90;;;;;;8411969;28;20055;-75
2024/03/21 08:36:51;;;;;;;3.78;1.08;;;10.50;99.90;;;;;;8410905;28;20131;-74
2024/03/21 08:40:53;;;;;;;2.92;0.95;;;10.50;99.90;;;;;;8403134;28;20171;-75
2024/03/21 08:44:55;;;;;;;3.42;1.20;;;10.60;99.90;;;;;;8412344;28;20544;-74
2024/03/21 08:48:56;;;;;;;2.45;0.80;;;10.70;99.90;;;;;;8412260;28;20123;-75
2024/03/21 08:52:57;;;;;;;4.25;0.90;;;10.70;99.90;;;;;;8411449;28;20051;-74
2024/03/21 08:56:58;;;;;;;5.07;0.98;;;10.80;99.90;;;;;;8390948;28;20575;-75
2024/03/21 09:00:59;;;;;;;3.28;1.05;;;10.80;99.90;;;;;;8395101;28;20135;-74
2024/03/21 09:05:00;;;;;;;2.47;0.90;;;10.90;99.90;;;;;;8416258;28;20055;-75
2024/03/21 09:09:05;;;;;;;4.00;1.00;;;10.90;99.90;;;;;;8411286;28;20127;-75
2024/03/21 09:13:06;;;;;;;3.75;1.20;;;11.10;99.90;;;;;;8409851;28;20485;-75
2024/03/21 09:17:07;;;;;;;;;;;11.20;99.90;;;;;;8409691;28;20130;-75
2024/03/21 09:21:10;;;;;;;;;;;11.40;99.90;;;;;;8410999;28;19920;-74
2024/03/21 09:25:10;;;;;;;;;;;11.50;99.90;;;;;;8387155;28;19969;-75
2024/03/21 09:29:11;;;;;;;;;;;11.60;99.90;;;;;;8409513;28;19920;-75
2024/03/21 09:33:12;;;;;;;;;;;11.60;99.90;;;;;;8411005;28;19927;-75
2024/03/21 09:37:14;;;;;;;;;;;11.50;99.90;;;;;;8391995;28;19930;-74
2024/03/21 09:41:16;;;;;;;;;;;11.40;99.90;;;;;;8381863;28;20003;-74
2024/03/21 09:45:22;;;;;;;;;;;11.50;99.90;;;;;;8359759;28;20436;-75
2024/03/21 09:49:22;;;;;;;;;;;11.50;99.90;;;;;;8392158;28;20011;-74
2024/03/21 09:53:23;;;;;;;;;;;11.60;99.90;;;;;;8410027;28;19931;-74
2024/03/21 09:57:25;;;;;;;;;;;11.60;99.90;;;;;;8391282;28;20014;-75
2024/03/21 10:01:26;;;;;;;;;;;11.60;99.90;;;;;;8408456;28;20420;-74
2024/03/21 10:05:26;;;;;;;;;;;11.70;99.90;;;;;;8409238;28;20291;-74
2024/03/21 10:09:27;;;;;;;;;;;11.70;99.90;;;;;;8393543;28;19923;-75
2024/03/21 10:13:28;;;;;;;;;;;11.70;99.90;;;;;;8409022;28;19920;-74
2024/03/21 10:17:29;;;;;;;;;;;11.70;99.90;;;;;;8410055;28;19920;-74
2024/03/21 10:21:29;;;;;;;;;;;11.80;99.90;;;;;;8390385;28;19920;-75
2024/03/21 10:25:34;;;;;;;;;;;11.90;99.90;;;;;;8407659;28;19930;-74
2024/03/21 10:29:35;;;;;;;;;;;12.10;99.90;;;;;;8405217;28;20439;-75
2024/03/21 10:33:37;;;;;;;;;;;12.30;99.90;;;;;;8408284;28;20283;-75
2024/03/21 10:37:38;;;;;;;;;;;12.30;99.90;;;;;;8407421;28;20047;-75
2024/03/21 10:41:40;;;;;;;;;;;12.50;99.90;;;;;;8378675;28;19995;-75
2024/03/21 10:45:41;;;;;;;;;;;12.70;99.90;;;;;;8404176;28;19920;-75
2024/03/21 10:49:43;;;;;;;;;;;12.80;99.90;;;;;;8408258;28;20015;-75
2024/03/21 10:53:51;;;;;;;;;;;13.00;99.90;;;;;;8407060;28;20468;-75
2024/03/21 10:57:54;;;;;;;;;;;13.20;99.90;;;;;;8407991;28;19999;-75
2024/03/21 11:01:57;;;;;;;;;;;13.20;99.90;;;;;;8406428;28;20019;-75
2024/03/21 11:05:59;;;;;;;;;;;13.20;99.90;;;;;;8403618;28;19926;-75
2024/03/21 11:10:02;;;;;;;;;;;13.20;99.90;;;;;;8387918;28;19921;-75
2024/03/21 11:14:03;;;;;;;;;;;13.30;99.90;;;;;;8392117;28;20011;-75
2024/03/21 11:18:05;;;;;;;;;;;13.50;99.90;;;;;;8386301;28;20324;-74
2024/03/21 11:22:11;;;;;;;;;;;13.70;99.90;;;;;;8402428;28;20409;-75
2024/03/21 11:26:46;;;;;;;;;;;13.70;99.90;;;;;;8406738;28;20368;-74
2024/03/21 11:30:47;;;;;;;;;;;13.60;99.90;;;;;;8407136;28;20006;-75
2024/03/21 11:34:48;;;;;;;;;;;13.30;99.90;;;;;;8405455;28;19920;-75
2024/03/21 11:38:50;;;;;;;;;;;13.20;99.90;;;;;;8390899;28;20458;-75
2024/03/21 11:42:51;;;;;;;;;;;13.20;99.90;;;;;;8381226;28;20003;-75
2024/03/21 11:46:52;;;;;;;;;;;13.20;99.90;;;;;;8390090;28;20380;-75
2024/03/21 11:50:54;;;;;;;;;;;13.20;99.90;;;;;;8408119;28;20011;-75
2024/03/21 11:54:54;;;;;;;;;;;13.10;99.90;;;;;;8391679;28;19926;-75
2024/03/21 11:58:55;;;;;;;;;;;13.00;99.90;;;;;;8392676;28;19920;-75
2024/03/21 12:02:56;;;;;;;;;;;12.90;99.90;;;;;;8396760;28;19934;-74
2024/03/21 12:06:57;;;;;;;;;;;12.90;99.90;;;;;;8412550;28;20054;-74
2024/03/21 12:10:58;;;;;;;;;;;12.90;99.90;;;;;;8421886;28;19942;-74
2024/03/21 12:14:58;;;;;;;;;;;12.90;99.90;;;;;;8412400;28;19923;-75
2024/03/21 12:18:59;;;;;;;;;;;12.80;99.90;;;;;;8398006;28;19946;-75
2024/03/21 12:23:00;;;;;;;;;;;12.70;99.90;;;;;;8413729;28;19927;-74
2024/03/21 12:27:01;;;;;;;;;;;12.60;99.90;;;;;;8394558;28;19919;-74
2024/03/21 12:31:02;;;;;;;;;;;12.50;99.90;;;;;;8405207;28;19924;-74
2024/03/21 12:35:03;;;;;;;;;;;12.40;99.90;;;;;;8410279;28;19925;-74
2024/03/21 12:39:04;;;;;;;;;;;12.40;99.90;;;;;;8413875;28;20006;-75
2024/03/21 12:43:06;;;;;;;;;;;12.40;99.90;;;;;;8392694;28;19927;-74
2024/03/21 12:47:07;;;;;;;;;;;12.40;99.90;;;;;;8393732;28;19999;-74
2024/03/21 12:51:12;;;;;;;;;;;12.30;99.90;;;;;;8421170;28;20516;-75
2024/03/21 12:55:13;;;;;;;;;;;12.40;99.90;;;;;;8410284;28;20014;-74
2024/03/21 12:59:14;;;;;;;;;;;12.40;99.90;;;;;;8396620;28;20010;-75
2024/03/21 13:03:15;;;;;;;;;;;12.50;99.90;;;;;;8410948;28;19931;-74
2024/03/21 13:07:16;;;;;;;;;;;12.50;99.90;;;;;;8411513;28;19935;-74
2024/03/21 13:11:17;;;;;;;;;;;12.50;99.90;;;;;;8413645;28;20007;-75
2024/03/21 13:15:18;;;;;;;;;;;12.50;99.90;;;;;;8394972;28;20405;-74
2024/03/21 13:19:20;;;;;;;;;;;12.50;99.90;;;;;;8396318;28;20011;-74
2024/03/21 13:23:21;;;;;;;;;;;12.50;99.90;;;;;;8393961;28;20007;-75
2024/03/21 13:27:24;;;;;;;;;;;12.60;99.90;;;;;;8393019;28;20473;-74
2024/03/21 13:31:25;;;;;;;;;;;12.50;99.90;;;;;;8412759;28;20018;-74
2024/03/21 13:35:26;;;;;;;;;;;12.50;99.90;;;;;;8392638;28;20382;-74
2024/03/21 13:39:27;;;;;;;4.50;1.85;;;12.40;99.90;;;;;;8395025;28;19931;-74
2024/03/21 13:43:28;;;;;;;;;;;12.30;99.90;;;;;;8383985;28;20080;-75
2024/03/21 13:47:28;;;;;;;;;;;12.30;99.90;;;;;;8408534;28;19946;-75
2024/03/21 13:51:29;;;;;;;;;;;12.30;99.90;;;;;;8412117;28;19931;-74
2024/03/21 13:55:33;;;;;;;;;;;12.20;99.90;;;;;;8402302;28;19931;-74
2024/03/21 13:59:35;;;;;;;;;;;12.10;99.90;;;;;;8413019;28;20007;-75
2024/03/21 14:03:36;;;;;;;;;;;12.00;99.90;;;;;;8408216;28;20015;-74
2024/03/21 14:07:37;;;;;;;;;;;11.90;99.90;;;;;;8390803;28;19928;-74
2024/03/21 14:11:37;;;;;;;;;;;11.90;99.90;;;;;;8404985;28;19924;-74
2024/03/21 14:15:38;;;;;;;;;;;12.00;99.90;;;;;;8405817;28;20311;-74
2024/03/21 14:19:39;;;;;;;;;;;12.00;99.90;;;;;;8408231;28;20011;-75
2024/03/21 14:23:40;;;;;;;;;;;12.10;99.90;;;;;;8402411;28;19924;-74
2024/03/21 14:27:43;;;;;;;;;;;12.20;99.90;;;;;;8398526;28;19939;-74
2024/03/21 14:31:44;;;;;;;;;;;12.30;99.90;;;;;;8401488;28;20011;-74
2024/03/21 14:35:45;;;;;;;;;;;12.30;99.90;;;;;;8404921;28;19928;-75
2024/03/21 14:39:45;;;;;;;;;;;12.30;99.90;;;;;;8411789;28;20015;-75
2024/03/21 14:43:46;;;;;;;;;;;12.40;99.90;;;;;;8384429;28;19964;-74
2024/03/21 14:47:47;;;;;;;;;;;12.40;99.90;;;;;;8388031;28;19932;-74
2024/03/21 14:51:48;;;;;;;;;;;12.40;99.90;;;;;;8406181;28;20534;-74
2024/03/21 14:55:49;;;;;;;;;;;12.40;99.90;;;;;;8420060;28;20393;-74
2024/03/21 14:59:50;;;;;;;;;;;12.50;99.90;;;;;;8411147;28;20027;-75
2024/03/21 15:03:51;;;;;;;;;;;12.40;99.90;;;;;;8364056;28;20027;-74
2024/03/21 15:07:52;;;;;;;;;;;12.40;99.90;;;;;;8402655;28;20007;-74
2024/03/21 15:11:53;;;;;;;;;;;12.40;99.90;;;;;;8406437;28;20003;-75
2024/03/21 15:15:54;;;;;;;;;;;12.20;99.90;;;;;;8410096;28;20018;-75
2024/03/21 15:19:55;;;;;;;;;;;12.10;99.90;;;;;;8406538;28;20346;-75
2024/03/21 15:23:58;;;;;;;;;;;12.10;99.90;;;;;;8414476;28;20038;-74
2024/03/21 15:27:58;;;;;;;;;;;12.00;99.90;;;;;;8393431;28;19924;-74
2024/03/21 15:31:59;;;;;;;;;;;11.90;99.90;;;;;;8410551;28;19924;-74
2024/03/21 15:36:00;;;;;;;;;;;11.80;99.90;;;;;;8415242;28;20391;-74
2024/03/21 15:40:04;;;;;;;;;;;11.80;99.90;;;;;;8412863;28;19931;-76
2024/03/21 15:44:06;;;;;;;;;;;11.70;99.90;;;;;;8392974;28;20019;-74
2024/03/21 15:48:07;;;;;;;;;;;11.60;99.90;;;;;;8422588;28;20007;-74
2024/03/21 15:52:08;;;;;;;;;;;11.50;99.90;;;;;;8411823;28;19924;-75
2024/03/21 15:56:09;;;;;;;14.20;10.70;;;11.50;99.90;;;;;;8395299;28;19972;-75
2024/03/21 16:00:11;;;;;;;14.65;8.45;;;11.40;99.90;;;;;;8380560;28;20178;-74
2024/03/21 16:04:12;;;;;;;10.50;7.00;;;11.30;99.90;;;;;;8384170;28;20045;-74
2024/03/21 16:08:13;;;;;;;9.25;6.40;;;11.20;99.90;;;;;;8393608;28;20052;-74
2024/03/21 16:12:14;;;;;;;8.63;5.65;;;11.10;99.90;;;;;;8395468;28;20045;-74
2024/03/21 16:16:15;;;;;;;8.70;5.10;;;11.10;99.90;;;;;;8384504;28;20078;-74
2024/03/21 16:20:16;;;;;;;8.48;4.68;;;11.10;99.90;;;;;;8391932;28;20064;-74
2024/03/21 16:24:17;;;;;;;6.22;4.13;;;11.00;99.90;;;;;;8385166;28;20511;-74
2024/03/21 16:28:18;;;;;;;6.75;4.15;;;11.00;99.90;;;;;;8401455;28;20556;-74
2024/03/21 16:32:19;;;;;;;7.43;4.88;;;11.00;99.90;;;;;;8363624;28;20763;-74
2024/03/21 16:36:20;;;;;;;7.88;4.38;;;11.00;99.90;;;;;;8404931;27;20060;-74
2024/03/21 16:40:21;;;;;;;7.63;4.32;;;11.00;99.90;;;;;;8370164;28;20066;-75
2024/03/21 16:44:22;;;;;;;7.35;4.07;;;11.00;99.90;;;;;;8361036;28;20091;-75
2024/03/21 16:48:23;;;;;;;6.85;4.10;;;10.90;99.90;;;;;;8359986;28;20051;-74
2024/03/21 16:52:24;;;;;;;6.30;3.92;;;10.90;99.90;;;;;;8379397;28;20140;-74
2024/03/21 16:56:25;;;;;;;6.68;4.03;;;10.80;99.90;;;;;;8349234;28;20056;-74
2024/03/21 17:00:26;;;;;;;6.30;3.88;;;10.80;99.90;;;;;;8366529;28;20512;-74
2024/03/21 17:04:27;;;;;;;6.43;4.03;;;10.80;99.90;;;;;;8359954;28;20432;-74
2024/03/21 17:08:29;;;;;;;6.40;3.35;;;10.70;99.90;;;;;;8357922;28;20055;-75
2024/03/21 17:12:29;;;;;;;7.13;4.05;;;10.80;99.90;;;;;;8363162;28;20131;-74
2024/03/21 17:16:30;;;;;;;8.98;4.00;;;10.80;99.90;;;;;;8360455;28;20060;-74
2024/03/21 17:21:15;;;;;;;6.05;3.75;;;10.80;99.90;;;;;;8370854;28;20143;-74
2024/03/21 17:25:16;;;;;;;7.65;4.00;;;10.80;99.90;;;;;;8362426;28;20055;-74
2024/03/21 17:29:17;;;;;;;7.35;4.43;;;10.70;99.90;;;;;;8365963;28;20123;-74
2024/03/21 17:33:18;;;;;;;6.60;3.45;;;10.70;99.90;;;;;;8369899;28;20057;-74
2024/03/21 17:37:19;;;;;;;6.18;3.25;;;10.70;99.90;;;;;;8352967;28;20139;-74
2024/03/21 17:41:20;;;;;;;6.70;3.45;;;10.60;99.90;;;;;;8363912;28;20446;-74
2024/03/21 17:45:22;;;;;;;6.57;3.80;;;10.60;99.90;;;;;;8355817;28;20044;-74
2024/03/21 17:49:25;;;;;;;8.55;3.75;;;10.60;99.90;;;;;;8370025;28;20044;-74
2024/03/21 17:53:26;;;;;;;5.93;3.45;;;10.70;99.90;;;;;;8370114;28;20053;-75
2024/03/21 17:57:27;;;;;;;6.03;3.40;;;10.60;99.90;;;;;;8362511;28;20523;-74
2024/03/21 18:01:28;;;;;;;7.90;4.10;;;10.60;99.90;;;;;;8361408;28;20105;-74
2024/03/21 18:05:32;;;;;;;8.40;3.63;;;10.60;99.90;;;;;;8362746;28;20043;-74
2024/03/21 18:09:33;;;;;;;6.75;3.70;;;10.60;99.90;;;;;;8356714;28;20063;-74
2024/03/21 18:13:34;;;;;;;7.85;3.78;;;10.60;99.90;;;;;;8357933;28;20060;-74
2024/03/21 18:17:35;;;;;;;6.88;4.18;;;10.50;99.90;;;;;;8363015;28;20048;-74
2024/03/21 18:21:36;;;;;;;7.03;3.85;;;10.50;99.90;;;;;;8367050;28;20506;-74
2024/03/21 18:25:38;;;;;;;7.30;3.88;;;10.50;99.90;;;;;;8362354;28;20097;-75
2024/03/21 18:29:39;;;;;;;9.52;4.13;;;10.50;99.90;;;;;;8362477;28;20105;-74
2024/03/21 18:33:40;;;;;;;7.07;4.30;;;10.50;99.90;;;;;;8373387;28;20056;-75
2024/03/21 18:37:42;;;;;;;7.35;4.30;;;10.50;99.90;;;;;;8362602;28;20051;-74
2024/03/21 18:41:43;;;;;;;6.88;3.80;;;10.50;99.90;;;;;;8372783;28;20074;-74
2024/03/21 18:45:44;;;;;;;6.82;3.20;;;10.50;99.90;;;;;;8373025;28;20061;-74
2024/03/21 18:49:45;;;;;;;6.68;3.90;;;10.50;99.90;;;;;;8371814;28;20478;-74
2024/03/21 18:53:46;;;;;;;7.13;3.80;;;10.40;99.90;;;;;;8376579;28;20053;-74
2024/03/21 18:57:48;;;;;;;7.75;4.57;;;10.40;99.90;;;;;;8365823;28;20728;-75
2024/03/21 19:01:49;;;;;;;9.25;5.60;;;10.40;99.90;;;;;;8371730;28;20127;-74
2024/03/21 19:05:50;;;;;;;9.45;5.32;;;10.40;99.90;;;;;;8361020;28;20506;-74
2024/03/21 19:09:52;;;;;;;10.30;5.70;;;10.30;99.90;;;;;;8356785;28;20060;-74
2024/03/21 19:13:52;;;;;;;10.75;6.45;;;10.30;99.90;;;;;;8339157;28;20149;-74
2024/03/21 19:17:53;;;;;;;11.25;5.97;;;10.30;99.90;;;;;;8362057;28;20105;-74
2024/03/21 19:22:08;;;;;;;11.05;6.75;;;10.30;99.90;;;;;;8367676;28;20076;-74
2024/03/21 19:26:09;;;;;;;11.65;7.07;;;10.30;99.90;;;;;;8372436;28;20047;-74
2024/03/21 19:30:11;;;;;;;10.63;6.85;;;10.30;99.90;;;;;;8363071;28;20084;-74
2024/03/21 19:34:13;;;;;;;12.27;6.97;;;10.30;99.90;;;;;;8353625;28;20045;-74
2024/03/21 19:38:14;;;;;;;11.07;7.90;;;10.30;99.90;;;;;;8355067;28;20467;-74
2024/03/21 19:42:15;;;;;;;11.55;7.32;;;10.30;99.90;;;;;;8350564;28;20060;-74
2024/03/21 19:46:17;;;;;;;14.40;8.73;;;10.30;99.90;;;;;;8356860;28;20048;-74
2024/03/21 19:50:18;;;;;;;14.80;8.63;;;10.30;99.90;;;;;;8358284;28;20049;-74
2024/03/21 19:54:19;;;;;;;12.23;7.97;;;10.30;99.90;;;;;;8355916;28;20067;-74
2024/03/21 19:58:20;;;;;;;11.80;8.25;;;10.30;99.90;;;;;;8386482;28;20052;-75
2024/03/21 20:02:21;;;;;;;12.63;8.43;;;10.30;99.90;;;;;;8381900;28;20189;-74
2024/03/21 20:06:27;;;;;;;13.45;8.82;;;10.30;99.90;;;;;;8373061;28;20174;-74
2024/03/21 20:10:28;;;;;;;14.50;9.65;;;10.40;99.90;;;;;;8370367;28;20052;-74
2024/03/21 20:14:29;;;;;;;12.75;8.52;;;10.40;99.90;;;;;;8388502;28;20049;-74
2024/03/21 20:18:30;;;;;;;14.50;8.65;;;10.40;99.90;;;;;;8382432;28;20048;-74
2024/03/21 20:22:33;;;;;;;14.98;9.50;;;10.40;99.90;;;;;;8375497;28;20055;-74
2024/03/21 20:26:35;;;;;;;14.35;9.15;;;10.40;99.90;;;;;;8381175;28;20063;-74
2024/03/21 20:30:37;;;;;;;15.77;9.38;;;10.40;99.90;;;;;;8389689;28;20547;-74
2024/03/21 20:34:44;;;;;;;14.07;9.43;;;10.40;99.90;;;;;;8370346;28;20044;-74
2024/03/21 20:38:45;;;;;;;17.70;9.73;;;10.40;99.90;;;;;;8392405;28;20130;-74
2024/03/21 20:42:46;;;;;;;17.45;10.45;;;10.40;99.90;;;;;;8392629;28;20117;-74
2024/03/21 20:46:47;;;;;;;16.27;11.30;;;10.40;99.90;;;;;;8391126;28;20067;-74
2024/03/21 20:51:06;;;;;;;15.70;10.25;;;10.40;99.90;;;;;;8426395;28;20067;-74
2024/03/21 20:55:07;;;;;;;16.83;10.60;;;10.30;99.90;;;;;;8396922;28;20177;-74
2024/03/21 20:59:09;;;;;;;18.38;11.98;;;10.30;99.90;;;;;;8396113;28;20732;-75
2024/03/21 21:03:09;;;;;;;19.50;12.27;;;10.40;99.90;;;;;;8371651;28;20048;-74
2024/03/21 21:07:10;;;;;;;19.45;11.82;;;10.40;99.90;;;;;;8379747;28;20699;-74
2024/03/21 21:11:11;;;;;;;19.98;11.88;;;10.40;99.90;;;;;;8375022;28;20113;-74
2024/03/21 21:15:13;;;;;;;21.80;12.68;;;10.40;99.90;;;;;;8373872;28;20064;-74
2024/03/21 21:19:14;;;;;;;23.85;13.82;;;10.40;99.90;;;;;;8386531;28;20044;-75
2024/03/21 21:23:16;;;;;;;23.13;13.88;;;10.50;99.90;;;;;;8379005;28;20576;-75
2024/03/21 21:27:17;;;;;;;22.42;13.73;;;10.50;99.90;;;;;;8387516;28;20572;-74
2024/03/21 21:31:17;;;;;;;23.70;14.30;;;10.50;99.90;;;;;;8376920;28;20425;-74
2024/03/21 21:35:18;;;;;;;25.00;15.48;;;10.50;99.90;;;;;;8382972;28;20048;-75
2024/03/21 21:39:19;;;;;;;26.25;14.10;;;10.50;99.90;;;;;;8386453;28;20095;-74
2024/03/21 21:43:21;;;;;;;22.73;14.25;;;10.50;99.90;;;;;;8375590;28;20045;-75
2024/03/21 21:47:21;;;;;;;28.25;16.58;;;10.50;99.90;;;;;;8384287;28;20051;-75